Time;durP1;ratioP1;P1;durP2;ratioP2;P2;SDS_P1;SDS_P2;PMS_P1;PMS_P2;Temp;Humidity;BMP_temperature;BMP_pressure;BME280_temperature;BME280_humidity;BME280_pressure;Samples;Min_cycle;Max_cycle;Signal;HPM_P1;HPM_P2
2023/01/10 00:00:51;;;;;;;16.25;14.45;;;3.00;99.90;;;;;;3948964;30;20115;-95
2023/01/10 00:03:12;;;;;;;28.45;16.92;;;2.90;99.90;;;;;;3960788;30;20088;-96
2023/01/10 00:05:34;;;;;;;131.77;19.42;;;2.70;99.90;;;;;;3960537;30;20417;-96
2023/01/10 00:07:54;;;;;;;229.27;33.55;;;2.60;99.90;;;;;;3962739;30;20250;-96
2023/01/10 00:10:15;;;;;;;32.75;12.18;;;2.50;99.90;;;;;;3948685;30;20086;-96
2023/01/10 00:15:14;;;;;;;118.75;24.00;;;2.50;99.90;;;;;;3948740;30;20050;-96
2023/01/10 00:17:34;;;;;;;243.25;28.98;;;2.50;99.90;;;;;;3948433;30;20092;-95
2023/01/10 00:19:54;;;;;;;221.10;26.63;;;2.30;99.90;;;;;;3961334;30;20380;-96
2023/01/10 00:22:17;;;;;;;364.85;32.05;;;2.10;99.90;;;;;;3950207;30;20105;-96
2023/01/10 00:24:38;;;;;;;246.13;20.48;;;2.00;99.90;;;;;;3953752;30;20094;-96
2023/01/10 00:26:58;;;;;;;129.57;15.05;;;2.00;99.90;;;;;;3951595;30;20060;-96
2023/01/10 00:29:36;;;;;;;64.25;11.98;;;2.00;99.90;;;;;;3948844;30;20107;-96
2023/01/10 00:31:56;;;;;;;9.15;8.90;;;1.90;99.90;;;;;;3960877;30;20131;-96
2023/01/10 00:34:16;;;;;;;9.93;9.68;;;2.10;99.90;;;;;;3960528;30;20314;-96
2023/01/10 00:36:37;;;;;;;9.45;9.10;;;2.10;99.90;;;;;;3961505;30;20124;-96
2023/01/10 00:38:57;;;;;;;8.48;8.32;;;2.30;99.90;;;;;;3948124;30;20082;-96
2023/01/10 00:43:56;;;;;;;10.25;9.93;;;2.30;99.90;;;;;;3948583;30;20086;-96
2023/01/10 00:46:16;;;;;;;9.75;9.25;;;2.20;99.90;;;;;;3948234;30;20078;-96
2023/01/10 00:48:37;;;;;;;9.45;9.15;;;2.20;99.90;;;;;;3948084;30;20068;-96
2023/01/10 00:50:57;;;;;;;9.32;8.95;;;2.20;99.90;;;;;;3947202;30;20082;-95
2023/01/10 00:53:17;;;;;;;10.38;9.85;;;2.20;99.90;;;;;;3961993;30;20054;-96
2023/01/10 00:55:37;;;;;;;27.33;12.23;;;2.20;99.90;;;;;;3959720;30;20054;-96
2023/01/10 00:57:57;;;;;;;140.85;22.60;;;2.10;99.90;;;;;;3947895;30;20081;-96
2023/01/10 01:00:17;;;;;;;170.77;21.27;;;1.90;99.90;;;;;;3948533;30;20066;-96
2023/01/10 01:02:37;;;;;;;213.75;31.65;;;1.70;99.90;;;;;;3962245;30;20116;-94
2023/01/10 01:04:57;;;;;;;102.00;27.13;;;1.70;99.90;;;;;;3947250;30;20062;-96
2023/01/10 01:07:17;;;;;;;296.05;34.08;;;1.70;99.90;;;;;;3947416;30;20428;-96
2023/01/10 01:10:25;;;;;;;257.73;31.90;;;1.60;99.90;;;;;;3948548;30;20051;-96
2023/01/10 01:12:17;;;;;;;78.82;25.92;;;1.20;99.90;;;;;;3949104;30;20252;-96
2023/01/10 01:14:37;;;;;;;20.88;18.13;;;1.30;99.90;;;;;;3947546;30;20243;-95
2023/01/10 01:16:57;;;;;;;12.52;11.93;;;1.50;99.90;;;;;;3961760;30;20382;-94
2023/01/10 01:19:17;;;;;;;11.95;11.20;;;1.60;99.90;;;;;;3960786;30;20063;-95
2023/01/10 01:21:38;;;;;;;12.10;11.63;;;1.70;99.90;;;;;;3947319;30;20092;-95
2023/01/10 01:23:58;;;;;;;14.32;13.02;;;1.90;99.90;;;;;;3947279;30;20131;-96
2023/01/10 01:26:18;;;;;;;27.27;20.80;;;2.00;99.90;;;;;;3948571;30;20070;-96
2023/01/10 01:28:38;;;;;;;310.17;33.25;;;1.90;99.90;;;;;;3958453;30;20097;-96
2023/01/10 01:30:58;;;;;;;359.83;40.22;;;1.70;99.90;;;;;;3946892;30;20056;-96
2023/01/10 01:33:19;;;;;;;354.77;40.00;;;1.50;99.90;;;;;;3947858;30;20390;-96
2023/01/10 01:35:44;;;;;;;323.80;40.65;;;1.40;99.90;;;;;;3948826;30;20374;-96
2023/01/10 01:38:05;;;;;;;277.50;40.20;;;1.20;99.90;;;;;;3948388;30;20099;-96
2023/01/10 01:40:25;;;;;;;305.13;43.33;;;1.00;99.90;;;;;;3959487;30;20085;-96
2023/01/10 01:42:46;;;;;;;35.75;32.42;;;1.00;99.90;;;;;;3947292;30;20074;-96
2023/01/10 01:45:10;;;;;;;348.67;46.92;;;1.00;99.90;;;;;;3946414;30;20136;-96
2023/01/10 01:47:30;;;;;;;;;;;1.10;99.90;;;;;;3961006;30;20054;-96
2023/01/10 01:49:51;;;;;;;133.48;33.83;;;1.10;99.90;;;;;;3955510;30;19967;-96
2023/01/10 01:52:21;;;;;;;197.77;36.10;;;1.00;99.90;;;;;;3948159;30;20093;-94
2023/01/10 01:54:41;;;;;;;102.35;33.33;;;0.90;99.90;;;;;;3962422;30;20058;-96
2023/01/10 01:57:12;;;;;;;26.45;25.30;;;0.80;99.90;;;;;;3956307;30;20055;-95
2023/01/10 01:59:40;;;;;;;18.17;17.45;;;1.00;99.90;;;;;;3946728;30;20075;-96
2023/01/10 02:02:09;;;;;;;13.50;12.68;;;1.40;99.90;;;;;;3960558;30;20418;-96
2023/01/10 02:04:41;;;;;;;14.20;13.68;;;1.50;99.90;;;;;;3959706;30;20054;-96
2023/01/10 02:07:01;;;;;;;170.57;30.40;;;1.50;99.90;;;;;;3948041;30;20042;-96
2023/01/10 02:09:31;;;;;;;215.85;35.50;;;1.30;99.90;;;;;;3946326;30;20044;-96
2023/01/10 02:11:51;;;;;;;311.20;43.40;;;1.10;99.90;;;;;;3947493;30;20106;-95
2023/01/10 02:14:13;;;;;;;75.03;31.38;;;1.10;99.90;;;;;;3948554;30;20068;-96
2023/01/10 02:16:33;;;;;;;24.50;23.67;;;0.90;99.90;;;;;;3960575;30;20047;-95
2023/01/10 02:18:53;;;;;;;22.15;21.48;;;1.20;99.90;;;;;;3946857;30;20062;-95
2023/01/10 02:21:42;;;;;;;22.20;21.40;;;1.30;99.90;;;;;;3947385;30;20059;-96
2023/01/10 02:24:08;;;;;;;17.67;17.38;;;1.30;99.90;;;;;;3959425;30;20101;-96
2023/01/10 02:26:37;;;;;;;13.88;13.43;;;1.40;99.90;;;;;;3945899;30;20050;-95
2023/01/10 02:29:04;;;;;;;13.38;12.98;;;1.30;99.90;;;;;;3958847;30;20056;-94
2023/01/10 02:31:42;;;;;;;10.77;10.57;;;1.30;99.90;;;;;;3961363;30;20082;-93
2023/01/10 02:34:30;;;;;;;12.05;11.45;;;1.20;99.90;;;;;;3959060;30;20161;-96
2023/01/10 02:37:05;;;;;;;9.85;9.55;;;1.30;99.90;;;;;;3961187;30;20058;-96
2023/01/10 02:39:34;;;;;;;9.25;9.05;;;1.20;99.90;;;;;;3960141;30;20132;-95
2023/01/10 02:42:18;;;;;;;8.95;8.65;;;1.20;99.90;;;;;;3961991;30;20043;-95
2023/01/10 02:44:48;;;;;;;8.35;8.15;;;1.40;99.90;;;;;;3963753;30;20291;-96
2023/01/10 02:47:09;;;;;;;8.40;8.10;;;1.50;99.90;;;;;;3949229;30;20133;-95
2023/01/10 02:49:29;;;;;;;9.27;8.98;;;1.50;99.90;;;;;;3948908;30;20369;-96
2023/01/10 02:51:48;;;;;;;10.65;10.15;;;1.40;99.90;;;;;;3948938;30;20055;-95
2023/01/10 02:54:18;;;;;;;9.60;9.43;;;1.40;99.90;;;;;;3949396;30;20098;-95
2023/01/10 02:56:44;;;;;;;10.40;10.05;;;1.40;99.90;;;;;;3948915;30;20382;-95
2023/01/10 02:59:26;;;;;;;9.23;8.93;;;1.30;99.90;;;;;;3950641;30;20404;-96
2023/01/10 03:02:16;;;;;;;9.75;9.65;;;1.30;99.90;;;;;;3951066;30;20123;-96
2023/01/10 03:04:39;;;;;;;8.18;7.85;;;1.20;99.90;;;;;;3951098;30;20128;-96
2023/01/10 03:07:14;;;;;;;9.63;9.38;;;1.30;99.90;;;;;;3948907;30;20082;-95
2023/01/10 03:09:42;;;;;;;14.20;13.80;;;1.20;99.90;;;;;;3961683;30;20389;-94
2023/01/10 03:12:25;;;;;;;16.65;16.10;;;1.00;99.90;;;;;;3949576;30;20058;-96
2023/01/10 03:14:47;;;;;;;23.10;21.88;;;1.00;99.90;;;;;;3948662;30;20059;-96
2023/01/10 03:17:10;;;;;;;62.95;29.30;;;0.80;99.90;;;;;;3960418;30;20092;-96
2023/01/10 03:19:39;;;;;;;122.82;32.30;;;0.70;99.90;;;;;;3948757;30;20092;-96
2023/01/10 03:22:01;;;;;;;80.95;30.23;;;0.50;99.90;;;;;;3962440;30;20078;-95
2023/01/10 03:24:30;;;;;;;276.95;37.78;;;0.50;99.90;;;;;;3961691;30;20087;-96
2023/01/10 03:27:01;;;;;;;34.53;28.83;;;0.50;99.90;;;;;;3947139;30;20055;-95
2023/01/10 03:29:28;;;;;;;29.85;27.98;;;0.20;99.90;;;;;;3949813;30;20063;-96
2023/01/10 03:31:55;;;;;;;31.33;30.00;;;0.30;99.90;;;;;;3961945;30;20057;-96
2023/01/10 03:34:15;;;;;;;27.52;25.92;;;0.50;99.90;;;;;;3948464;30;20071;-95
2023/01/10 03:37:00;;;;;;;31.42;29.95;;;0.40;99.90;;;;;;3962126;30;20097;-95
2023/01/10 03:39:30;;;;;;;105.18;31.20;;;0.50;99.90;;;;;;3964384;30;20111;-94
2023/01/10 03:41:53;;;;;;;28.17;27.13;;;0.60;99.90;;;;;;3962863;30;20070;-95
2023/01/10 03:47:28;;;;;;;18.55;18.05;;;1.00;99.90;;;;;;3948894;30;20109;-94
2023/01/10 03:49:54;;;;;;;11.20;11.00;;;1.20;99.90;;;;;;3961531;30;20135;-95
2023/01/10 03:52:17;;;;;;;19.98;18.83;;;1.10;99.90;;;;;;3947350;30;20405;-96
2023/01/10 03:54:37;;;;;;;41.47;28.35;;;0.90;99.90;;;;;;3950406;30;20155;-96
2023/01/10 03:56:57;;;;;;;27.92;27.15;;;0.80;99.90;;;;;;3950445;30;20054;-95
2023/01/10 03:59:20;;;;;;;23.55;23.05;;;0.70;99.90;;;;;;3958910;30;20059;-95
2023/01/10 04:01:40;;;;;;;24.85;23.70;;;0.70;99.90;;;;;;3950504;30;20055;-96
2023/01/10 04:04:00;;;;;;;24.08;23.48;;;0.70;99.90;;;;;;3960104;30;20069;-96
2023/01/10 04:06:21;;;;;;;184.98;31.63;;;0.70;99.90;;;;;;3949215;30;20059;-96
2023/01/10 04:08:41;;;;;;;152.20;31.67;;;0.60;99.90;;;;;;3948197;30;20050;-95
2023/01/10 04:11:01;;;;;;;26.75;25.27;;;0.30;99.90;;;;;;3956096;30;20130;-96
2023/01/10 04:13:21;;;;;;;133.73;30.20;;;0.50;99.90;;;;;;3961061;30;20127;-95
2023/01/10 04:15:41;;;;;;;30.48;28.67;;;0.50;99.90;;;;;;3960110;30;20051;-96
2023/01/10 04:18:01;;;;;;;25.02;24.33;;;0.30;99.90;;;;;;3960561;30;20435;-96
2023/01/10 04:20:25;;;;;;;21.42;20.48;;;0.40;99.90;;;;;;3947919;30;20059;-95
2023/01/10 04:22:45;;;;;;;;;;;0.40;99.90;;;;;;3952918;30;20166;-94
2023/01/10 04:25:05;;;;;;;20.70;20.15;;;0.50;99.90;;;;;;3963962;29;19956;-94
2023/01/10 04:27:26;;;;;;;17.67;17.23;;;0.60;99.90;;;;;;3960695;30;20125;-96
2023/01/10 04:29:46;;;;;;;16.10;15.60;;;0.70;99.90;;;;;;3948580;30;20381;-95
2023/01/10 04:32:06;;;;;;;16.45;15.85;;;0.80;99.90;;;;;;3961007;30;20085;-96
2023/01/10 04:34:28;;;;;;;25.63;24.25;;;0.70;99.90;;;;;;3948962;30;20088;-96
2023/01/10 04:36:48;;;;;;;20.02;19.48;;;0.40;99.90;;;;;;3960323;30;20054;-94
2023/01/10 04:39:10;;;;;;;17.40;16.88;;;0.50;99.90;;;;;;3948723;30;20116;-96
2023/01/10 04:41:31;;;;;;;13.02;12.70;;;0.70;99.90;;;;;;3949115;30;20378;-96
2023/01/10 04:43:51;;;;;;;13.43;13.13;;;0.80;99.90;;;;;;3961227;29;20138;-96
2023/01/10 04:46:11;;;;;;;12.38;12.10;;;0.70;99.90;;;;;;3964066;30;20242;-96
2023/01/10 04:48:31;;;;;;;14.63;14.25;;;0.70;99.90;;;;;;3947965;30;20047;-95
2023/01/10 04:50:53;;;;;;;18.02;17.25;;;0.60;99.90;;;;;;3948458;30;20055;-94
2023/01/10 04:53:13;;;;;;;24.08;22.48;;;0.70;99.90;;;;;;3948134;30;20135;-96
2023/01/10 04:55:34;;;;;;;76.80;30.13;;;0.40;99.90;;;;;;3961484;30;20058;-93
2023/01/10 04:57:54;;;;;;;30.20;27.88;;;0.10;99.90;;;;;;3962296;30;20108;-95
2023/01/10 05:00:14;;;;;;;28.40;27.33;;;0.10;99.90;;;;;;3947883;30;20055;-93
2023/01/10 05:02:34;;;;;;;30.00;28.90;;;0.30;99.90;;;;;;3946491;30;20132;-96
2023/01/10 05:04:54;;;;;;;27.98;26.92;;;0.10;99.90;;;;;;3946035;30;20147;-94
2023/01/10 05:07:14;;;;;;;27.88;26.77;;;0.20;99.90;;;;;;3947914;30;20092;-93
2023/01/10 05:09:34;;;;;;;30.95;29.75;;;0.20;99.90;;;;;;3959519;30;20092;-96
2023/01/10 05:11:54;;;;;;;33.05;31.42;;;0.00;99.90;;;;;;3947835;30;20067;-95
2023/01/10 05:14:14;;;;;;;31.42;30.13;;;0.10;99.90;;;;;;3960382;30;20115;-95
2023/01/10 05:16:35;;;;;;;177.13;33.83;;;0.00;99.90;;;;;;3949240;30;20066;-95
2023/01/10 05:18:55;;;;;;;208.70;40.88;;;0.00;99.90;;;;;;3946832;30;20055;-94
2023/01/10 05:21:15;;;;;;;29.40;27.55;;;-0.10;99.90;;;;;;3960526;30;20054;-94
2023/01/10 05:23:36;;;;;;;27.73;26.42;;;-0.10;99.90;;;;;;3947147;30;20087;-95
2023/01/10 05:25:56;;;;;;;31.48;30.00;;;0.00;99.90;;;;;;3950662;30;20115;-95
2023/01/10 05:28:16;;;;;;;17.67;17.08;;;0.20;99.90;;;;;;3961865;30;20046;-96
2023/01/10 05:30:36;;;;;;;19.27;18.60;;;0.40;99.90;;;;;;3959587;30;20419;-95
2023/01/10 05:32:56;;;;;;;27.02;25.83;;;0.40;99.90;;;;;;3947522;30;20054;-95
2023/01/10 05:35:16;;;;;;;28.52;27.30;;;0.40;99.90;;;;;;3948210;30;20123;-95
2023/01/10 05:37:37;;;;;;;32.15;29.80;;;0.40;99.90;;;;;;3946580;30;20431;-95
2023/01/10 05:39:57;;;;;;;29.08;26.55;;;0.30;99.90;;;;;;3959719;30;20076;-96
2023/01/10 05:42:18;;;;;;;27.60;25.17;;;0.10;99.90;;;;;;3960074;30;20115;-95
2023/01/10 05:44:38;;;;;;;29.35;27.27;;;0.00;99.90;;;;;;3946638;30;20093;-93
2023/01/10 05:46:58;;;;;;;31.20;29.58;;;0.00;99.90;;;;;;3960689;30;20050;-95
2023/01/10 05:49:18;;;;;;;34.25;31.30;;;0.10;99.90;;;;;;3959462;30;20093;-96
2023/01/10 05:51:38;;;;;;;80.93;34.42;;;-0.10;99.90;;;;;;3958337;30;20059;-94
2023/01/10 05:53:58;;;;;;;76.28;31.17;;;-0.20;99.90;;;;;;3960140;30;20074;-96
2023/01/10 05:56:19;;;;;;;71.63;35.05;;;-0.40;99.90;;;;;;3961316;30;20058;-94
2023/01/10 05:58:39;;;;;;;121.47;34.42;;;-0.40;99.90;;;;;;3959596;30;20159;-95
2023/01/10 06:00:58;;;;;;;166.45;40.58;;;-0.60;99.90;;;;;;3949913;30;20374;-95
2023/01/10 06:03:19;;;;;;;76.63;33.63;;;-0.60;99.90;;;;;;3957986;30;20338;-93
2023/01/10 06:05:39;;;;;;;143.23;36.58;;;-0.70;99.90;;;;;;3946930;30;20321;-95
2023/01/10 06:07:59;;;;;;;64.40;34.97;;;-0.70;99.90;;;;;;3947894;30;20060;-95
2023/01/10 06:10:19;;;;;;;36.60;32.90;;;-0.60;99.90;;;;;;3957410;30;20115;-94
2023/01/10 06:12:40;;;;;;;87.22;30.88;;;-0.60;99.90;;;;;;3948289;30;20269;-96
2023/01/10 06:14:59;;;;;;;76.10;35.17;;;-0.40;99.90;;;;;;3959679;30;20077;-95
2023/01/10 06:17:20;;;;;;;59.17;33.80;;;-0.50;99.90;;;;;;3950225;30;20060;-94
2023/01/10 06:19:40;;;;;;;150.80;37.00;;;-0.50;99.90;;;;;;3949183;30;20059;-95
2023/01/10 06:22:01;;;;;;;64.00;35.03;;;-0.60;99.90;;;;;;3950321;30;20054;-95
2023/01/10 06:24:21;;;;;;;32.60;31.33;;;-0.60;99.90;;;;;;3962176;30;20070;-87
2023/01/10 06:26:41;;;;;;;116.55;67.20;;;-0.40;99.90;;;;;;3949458;30;20051;-87
2023/01/10 06:29:00;;;;;;;80.35;58.38;;;-0.40;99.90;;;;;;3952081;30;20376;-87
2023/01/10 06:31:21;;;;;;;146.30;57.97;;;-0.40;99.90;;;;;;3962868;30;20059;-87
2023/01/10 06:33:42;;;;;;;52.42;47.80;;;-0.50;99.90;;;;;;3948833;30;20076;-87
2023/01/10 06:36:02;;;;;;;48.70;44.45;;;-0.40;99.90;;;;;;3961537;30;20426;-87
2023/01/10 06:38:22;;;;;;;131.70;54.50;;;-0.30;99.90;;;;;;3950096;30;20101;-87
2023/01/10 06:40:42;;;;;;;62.83;50.67;;;-0.30;99.90;;;;;;3960736;30;20054;-87
2023/01/10 06:43:02;;;;;;;69.15;49.78;;;-0.30;99.90;;;;;;3949452;30;20110;-87
2023/01/10 06:45:22;;;;;;;215.98;56.35;;;-0.30;99.90;;;;;;3960253;30;20404;-87
2023/01/10 06:47:42;;;;;;;178.68;42.30;;;-0.60;99.90;;;;;;3949560;30;20063;-87
2023/01/10 06:50:03;;;;;;;101.07;44.83;;;-0.50;99.90;;;;;;3950157;30;20050;-87
2023/01/10 06:52:23;;;;;;;44.05;41.10;;;-0.40;99.90;;;;;;3948084;30;20054;-87
2023/01/10 06:54:43;;;;;;;50.53;45.97;;;-0.40;99.90;;;;;;3947894;30;20128;-86
2023/01/10 06:57:03;;;;;;;98.80;46.72;;;-0.40;99.90;;;;;;3948836;30;20062;-86
2023/01/10 06:59:23;;;;;;;52.92;47.28;;;-0.40;99.90;;;;;;3951724;30;20255;-86
2023/01/10 07:01:43;;;;;;;221.93;53.95;;;-0.40;99.90;;;;;;3949477;30;20093;-86
2023/01/10 07:04:03;;;;;;;59.28;43.45;;;-0.40;99.90;;;;;;3949479;30;20047;-86
2023/01/10 07:06:23;;;;;;;160.95;43.00;;;-0.50;99.90;;;;;;3948059;30;20110;-86
2023/01/10 07:08:45;;;;;;;97.88;38.33;;;-0.50;99.90;;;;;;3954576;30;20055;-86
2023/01/10 07:11:05;;;;;;;293.73;51.10;;;-0.60;99.90;;;;;;3949338;30;20094;-86
2023/01/10 07:13:25;;;;;;;133.02;38.65;;;-0.60;99.90;;;;;;3960937;30;20377;-86
2023/01/10 07:15:45;;;;;;;196.40;45.65;;;-0.70;99.90;;;;;;3961105;30;20055;-86
2023/01/10 07:18:05;;;;;;;211.10;40.28;;;-0.70;99.90;;;;;;3947427;30;20119;-86
2023/01/10 07:20:26;;;;;;;51.58;35.58;;;-0.80;99.90;;;;;;3960379;30;20097;-86
2023/01/10 07:22:57;;;;;;;42.60;35.13;;;-0.80;99.90;;;;;;3949514;30;20042;-89
2023/01/10 07:25:17;;;;;;;42.80;38.03;;;-0.70;99.90;;;;;;3948451;30;20063;-89
2023/01/10 07:27:42;;;;;;;150.32;44.83;;;-0.50;99.90;;;;;;3960889;30;20043;-89
2023/01/10 07:30:02;;;;;;;140.25;45.65;;;-0.40;99.90;;;;;;3948432;30;20094;-88
2023/01/10 07:32:22;;;;;;;93.15;47.88;;;-0.50;99.90;;;;;;3948995;30;20067;-89
2023/01/10 07:34:44;;;;;;;174.45;49.50;;;-0.50;99.90;;;;;;3949090;30;20093;-89
2023/01/10 07:37:04;;;;;;;129.10;47.22;;;-0.60;99.90;;;;;;3948181;30;20055;-89
2023/01/10 07:39:24;;;;;;;168.95;50.72;;;-0.50;99.90;;;;;;3960308;30;20086;-89
2023/01/10 07:41:46;;;;;;;87.90;47.58;;;-0.40;99.90;;;;;;3949816;30;20289;-89
2023/01/10 07:44:06;;;;;;;91.28;45.88;;;-0.40;99.90;;;;;;3949639;30;20097;-89
2023/01/10 07:46:26;;;;;;;83.65;54.17;;;-0.30;99.90;;;;;;3949064;30;20059;-89
2023/01/10 07:48:48;;;;;;;49.25;45.15;;;-0.30;99.90;;;;;;3960758;30;20114;-89
2023/01/10 07:51:08;;;;;;;41.85;39.13;;;-0.20;99.90;;;;;;3948689;30;20081;-86
2023/01/10 07:53:28;;;;;;;36.13;33.83;;;-0.10;99.90;;;;;;3950329;30;20263;-87
2023/01/10 07:55:49;;;;;;;39.10;36.97;;;0.00;99.90;;;;;;3948057;30;20055;-86
2023/01/10 07:58:09;;;;;;;34.75;32.67;;;0.00;99.90;;;;;;3948481;30;20105;-86
2023/01/10 08:00:29;;;;;;;34.17;31.98;;;0.10;99.90;;;;;;3948516;30;20243;-87
2023/01/10 08:02:53;;;;;;;43.13;39.47;;;0.20;99.90;;;;;;3948203;30;20047;-86
2023/01/10 08:05:14;;;;;;;46.60;41.72;;;0.20;99.90;;;;;;3947834;30;20097;-87
2023/01/10 08:07:33;;;;;;;93.70;41.67;;;0.30;99.90;;;;;;3953377;30;20100;-87
2023/01/10 08:09:53;;;;;;;44.50;39.10;;;0.30;99.90;;;;;;3959891;30;20047;-87
2023/01/10 08:12:13;;;;;;;43.80;40.20;;;0.30;99.90;;;;;;3946565;30;20162;-87
2023/01/10 08:14:33;;;;;;;41.08;37.38;;;0.30;99.90;;;;;;3947750;30;20096;-87
2023/01/10 08:16:53;;;;;;;40.35;36.95;;;0.50;99.90;;;;;;3948116;30;20055;-88
2023/01/10 08:19:15;;;;;;;58.25;49.22;;;0.50;99.90;;;;;;3958672;30;20295;-88
2023/01/10 08:21:35;;;;;;;43.05;37.53;;;0.60;99.90;;;;;;3948701;30;20288;-88
2023/01/10 08:23:55;;;;;;;69.75;62.10;;;0.70;99.90;;;;;;3948915;30;20111;-88
2023/01/10 08:26:15;;;;;;;82.60;49.65;;;0.60;99.90;;;;;;3948419;30;20082;-88
2023/01/10 08:28:35;;;;;;;265.85;59.92;;;0.60;99.90;;;;;;3949418;30;20342;-88
2023/01/10 08:30:55;;;;;;;326.23;58.38;;;0.40;99.90;;;;;;3948870;30;20055;-88
2023/01/10 08:33:15;;;;;;;321.08;62.25;;;0.30;99.90;;;;;;3947777;30;20093;-88
2023/01/10 08:35:42;;;;;;;462.60;73.20;;;0.30;99.90;;;;;;3947910;30;20243;-88
2023/01/10 08:38:02;;;;;;;599.42;85.78;;;0.20;99.90;;;;;;3948487;30;20046;-88
2023/01/10 08:40:22;;;;;;;304.10;65.78;;;0.10;99.90;;;;;;3949222;30;20067;-88
2023/01/10 08:42:42;;;;;;;264.33;73.85;;;0.30;99.90;;;;;;3959566;30;20090;-89
2023/01/10 08:45:03;;;;;;;86.70;51.35;;;0.30;99.90;;;;;;3946822;30;20054;-88
2023/01/10 08:47:23;;;;;;;200.40;66.38;;;0.50;99.90;;;;;;3959621;30;20097;-88
2023/01/10 08:49:43;;;;;;;70.00;57.42;;;0.60;99.90;;;;;;3948127;30;20058;-88
2023/01/10 08:52:03;;;;;;;217.38;63.00;;;0.80;99.90;;;;;;3948690;30;20405;-88
2023/01/10 08:54:23;;;;;;;104.32;65.40;;;1.00;99.90;;;;;;3959437;30;20115;-87
2023/01/10 08:56:43;;;;;;;56.97;51.22;;;1.00;99.90;;;;;;3948264;30;20370;-87
2023/01/10 08:59:03;;;;;;;47.78;34.50;;;1.20;99.90;;;;;;3946956;30;20122;-87
2023/01/10 09:01:23;;;;;;;44.80;33.88;;;1.60;99.90;;;;;;3959722;30;20055;-87
2023/01/10 09:03:43;;;;;;;44.95;34.55;;;1.90;99.90;;;;;;3947463;30;20725;-86
2023/01/10 09:06:04;;;;;;;36.88;30.00;;;1.60;99.90;;;;;;3947694;30;20092;-87
2023/01/10 09:08:24;;;;;;;40.45;34.72;;;1.40;99.90;;;;;;3946613;30;20063;-87
2023/01/10 09:10:44;;;;;;;47.17;33.00;;;1.50;99.90;;;;;;3947508;30;20147;-86
2023/01/10 09:13:04;;;;;;;53.42;38.92;;;1.70;99.90;;;;;;3948089;30;20047;-86
2023/01/10 09:15:31;;;;;;;45.90;33.58;;;1.70;99.90;;;;;;3948341;30;20467;-87
2023/01/10 09:17:59;;;;;;;42.13;31.02;;;1.90;99.90;;;;;;3956587;30;20101;-89
2023/01/10 09:20:19;;;;;;;50.13;38.00;;;2.50;99.90;;;;;;3947509;30;20119;-89
2023/01/10 09:22:39;;;;;;;71.93;49.17;;;2.50;99.90;;;;;;3949551;30;20111;-89
2023/01/10 09:24:59;;;;;;;48.33;39.58;;;2.40;99.90;;;;;;3959446;30;20377;-90
2023/01/10 09:27:19;;;;;;;60.80;41.75;;;2.70;99.90;;;;;;3946435;30;20051;-89
2023/01/10 09:29:39;;;;;;;56.75;41.00;;;2.90;99.90;;;;;;3947607;30;20373;-90
2023/01/10 09:31:59;;;;;;;55.63;40.17;;;2.80;99.90;;;;;;3946922;30;20098;-89
2023/01/10 09:34:19;;;;;;;61.35;50.15;;;3.10;99.90;;;;;;3946744;30;20058;-89
2023/01/10 09:36:39;;;;;;;68.32;49.60;;;3.30;99.90;;;;;;3947166;30;20120;-90
2023/01/10 09:38:59;;;;;;;41.72;31.20;;;3.50;99.90;;;;;;3949035;30;20056;-90
2023/01/10 09:42:01;;;;;;;36.67;31.05;;;3.30;99.90;;;;;;3958814;30;20431;-90
2023/01/10 09:44:36;;;;;;;27.42;24.55;;;3.10;99.90;;;;;;3946976;30;20050;-91
2023/01/10 09:47:22;;;;;;;11.65;11.25;;;3.00;99.90;;;;;;3948666;30;20105;-90
2023/01/10 09:50:16;;;;;;;14.32;13.07;;;3.30;99.90;;;;;;3946485;30;20124;-90
2023/01/10 09:52:43;;;;;;;30.17;26.45;;;3.70;99.90;;;;;;3947091;30;20063;-90
2023/01/10 09:55:23;;;;;;;26.70;23.90;;;3.80;99.90;;;;;;3959655;30;20067;-90
2023/01/10 09:57:43;;;;;;;18.15;16.67;;;4.30;99.90;;;;;;3946903;30;20494;-90
2023/01/10 10:00:07;;;;;;;14.63;13.65;;;4.80;99.90;;;;;;3947220;30;20058;-90
2023/01/10 10:02:33;;;;;;;11.52;10.90;;;4.90;99.90;;;;;;3947190;30;20054;-89
2023/01/10 10:05:23;;;;;;;15.35;14.13;;;4.60;99.90;;;;;;3947541;30;20093;-90
2023/01/10 10:07:44;;;;;;;10.45;9.93;;;4.60;99.90;;;;;;3960355;30;20054;-90
2023/01/10 10:10:06;;;;;;;6.85;6.65;;;4.80;99.90;;;;;;3960500;30;20054;-90
2023/01/10 10:12:45;;;;;;;6.25;6.13;;;5.10;99.90;;;;;;3961573;30;20160;-90
2023/01/10 10:15:27;;;;;;;6.20;6.10;;;5.40;99.90;;;;;;3960890;30;20275;-89
2023/01/10 10:17:51;;;;;;;7.93;7.68;;;5.70;99.90;;;;;;3961166;30;20140;-89
2023/01/10 10:20:14;;;;;;;4.95;4.85;;;6.30;99.90;;;;;;3961088;30;20062;-90
2023/01/10 10:22:43;;;;;;;3.75;3.75;;;6.50;99.90;;;;;;3960589;30;20104;-90
2023/01/10 10:25:06;;;;;;;7.13;6.93;;;6.60;99.90;;;;;;3965284;30;20071;-89
2023/01/10 10:27:35;;;;;;;5.07;4.97;;;6.90;99.90;;;;;;3961066;30;20307;-89
2023/01/10 10:30:14;;;;;;;4.20;4.10;;;6.90;99.90;;;;;;3961319;30;20232;-90
2023/01/10 10:33:00;;;;;;;4.13;4.03;;;6.90;99.90;;;;;;3960588;30;20247;-89
2023/01/10 10:35:26;;;;;;;4.18;4.07;;;7.20;99.90;;;;;;3960328;30;20046;-90
2023/01/10 10:37:50;;;;;;;4.38;4.28;;;7.40;99.90;;;;;;3960399;30;20259;-90
2023/01/10 10:40:14;;;;;;;6.43;6.03;;;7.50;99.90;;;;;;3959948;30;20082;-90
2023/01/10 10:42:41;;;;;;;3.38;3.38;;;7.90;99.90;;;;;;3962048;30;20053;-90
2023/01/10 10:45:06;;;;;;;5.05;4.85;;;7.90;99.90;;;;;;3958917;30;20050;-90
2023/01/10 10:47:35;;;;;;;3.80;3.70;;;8.00;99.90;;;;;;3946497;30;20051;-90
2023/01/10 10:50:13;;;;;;;3.95;3.75;;;8.10;99.90;;;;;;3945931;30;20312;-90
2023/01/10 10:52:35;;;;;;;5.40;5.20;;;8.30;99.90;;;;;;3946706;30;20058;-89
2023/01/10 10:54:55;;;;;;;8.98;8.13;;;8.40;99.90;;;;;;3946493;30;20063;-90
2023/01/10 10:57:16;;;;;;;5.57;5.47;;;8.60;99.90;;;;;;3946903;30;20082;-90
2023/01/10 10:59:36;;;;;;;4.38;4.25;;;8.70;99.90;;;;;;3959229;30;20101;-90
2023/01/10 11:01:56;;;;;;;9.50;8.90;;;8.70;99.90;;;;;;3960767;30;20135;-90
2023/01/10 11:04:22;;;;;;;4.93;4.82;;;8.80;99.90;;;;;;3958305;30;20119;-91
2023/01/10 11:06:47;;;;;;;4.60;4.32;;;8.80;99.90;;;;;;3949416;30;20054;-90
2023/01/10 11:09:07;;;;;;;6.00;5.80;;;8.90;99.90;;;;;;3948997;30;20058;-91
2023/01/10 11:11:35;;;;;;;6.10;5.90;;;9.10;99.90;;;;;;3960765;30;20408;-91
2023/01/10 11:14:00;;;;;;;7.80;7.38;;;9.20;99.90;;;;;;3961404;30;20072;-91
2023/01/10 11:16:30;;;;;;;8.32;7.85;;;9.30;99.90;;;;;;3961435;30;20102;-90
2023/01/10 11:19:29;;;;;;;8.00;7.75;;;9.50;99.90;;;;;;3947626;30;20047;-90
2023/01/10 11:22:01;;;;;;;6.40;6.00;;;9.70;99.90;;;;;;3962100;30;20401;-91
2023/01/10 11:24:57;;;;;;;7.05;6.65;;;9.80;99.90;;;;;;3963564;29;20136;-90
2023/01/10 11:27:21;;;;;;;8.45;8.05;;;10.00;99.90;;;;;;3962173;30;20050;-91
2023/01/10 11:29:48;;;;;;;7.07;6.38;;;10.20;99.90;;;;;;3960898;30;20123;-91
2023/01/10 11:32:16;;;;;;;6.07;5.78;;;10.30;99.90;;;;;;3958772;30;20172;-91
2023/01/10 11:34:38;;;;;;;8.50;8.02;;;10.40;99.90;;;;;;3963814;30;20094;-90
2023/01/10 11:37:03;;;;;;;7.45;6.85;;;10.90;99.90;;;;;;3962323;30;20261;-91
2023/01/10 11:39:23;;;;;;;3.80;3.70;;;11.10;99.90;;;;;;3955765;30;20378;-91
2023/01/10 11:41:43;;;;;;;5.85;5.50;;;11.40;99.90;;;;;;3968071;29;20065;-91
2023/01/10 11:44:29;;;;;;;4.65;4.38;;;11.60;99.90;;;;;;3962461;29;20074;-91
2023/01/10 11:46:55;;;;;;;4.55;4.28;;;11.90;99.90;;;;;;3956478;30;20298;-91
2023/01/10 11:49:31;;;;;;;5.90;2.88;;;11.80;99.90;;;;;;3947323;30;20366;-90
2023/01/10 11:52:03;;;;;;;7.00;6.65;;;11.80;99.00;;;;;;3962136;30;20058;-91
2023/01/10 11:54:26;;;;;;;3.92;3.75;;;11.50;99.90;;;;;;3946818;30;20481;-91
2023/01/10 11:57:15;;;;;;;2.30;2.30;;;11.40;97.40;;;;;;3948902;30;20085;-90
2023/01/10 11:59:37;;;;;;;4.28;4.18;;;11.50;98.00;;;;;;3949914;30;20097;-91
2023/01/10 12:02:23;;;;;;;3.25;3.15;;;11.40;94.40;;;;;;3948545;30;20105;-91
2023/01/10 12:04:46;;;;;;;2.22;2.22;;;11.40;93.60;;;;;;3947207;30;20059;-90
2023/01/10 12:07:09;;;;;;;2.50;2.50;;;11.50;92.30;;;;;;3944186;30;20401;-91
2023/01/10 12:09:39;;;;;;;2.33;2.33;;;11.50;93.80;;;;;;3960760;30;20086;-90
2023/01/10 12:12:05;;;;;;;1.92;1.92;;;11.60;93.10;;;;;;3949805;30;20059;-91
2023/01/10 12:14:27;;;;;;;1.10;1.10;;;11.80;91.50;;;;;;3959517;30;20407;-91
2023/01/10 12:16:57;;;;;;;1.40;1.40;;;11.70;87.50;;;;;;3960266;30;20059;-90
2023/01/10 12:19:18;;;;;;;1.35;1.35;;;11.70;87.90;;;;;;3948375;30;20069;-91
2023/01/10 12:21:40;;;;;;;1.73;1.73;;;11.70;90.20;;;;;;3947443;30;20050;-90
2023/01/10 12:24:06;;;;;;;1.30;1.30;;;11.80;88.40;;;;;;3948317;30;20082;-91
2023/01/10 12:26:29;;;;;;;1.35;1.35;;;11.90;89.60;;;;;;3948156;30;20055;-91
2023/01/10 12:28:56;;;;;;;2.15;1.25;;;11.90;87.90;;;;;;3947366;30;20054;-90